Time;durP1;ratioP1;P1;durP2;ratioP2;P2;SDS_P1;SDS_P2;PMS_P1;PMS_P2;Temp;Humidity;BMP_temperature;BMP_pressure;BME280_temperature;BME280_humidity;BME280_pressure;Samples;Min_cycle;Max_cycle;Signal;HPM_P1;HPM_P2
2023/07/12 00:00:26;;;;;;;8.38;7.65;;;;;;;-144.30;42.64;83568.00;5069731;28;20592;-52
2023/07/12 00:02:53;;;;;;;8.98;8.30;;;;;;;-144.30;43.00;83562.06;5069679;28;20314;-53
2023/07/12 00:05:21;;;;;;;8.45;7.75;;;;;;;-144.30;42.78;83538.22;5069640;28;20240;-50
2023/07/12 00:07:48;;;;;;;8.27;7.68;;;;;;;-144.30;42.62;83564.03;5069636;28;20575;-51
2023/07/12 00:10:18;;;;;;;9.07;8.45;;;;;;;-144.30;42.77;83562.06;5069678;28;20294;-53
2023/07/12 00:12:45;;;;;;;8.38;7.57;;;;;;;-144.30;43.02;83593.84;5069645;28;20192;-49
2023/07/12 00:15:22;;;;;;;9.63;8.73;;;;;;;-144.30;43.02;83603.78;5069911;28;20650;-52
2023/07/12 00:17:49;;;;;;;10.30;7.40;;;;;;;-144.30;43.04;83526.28;5069583;28;20211;-49
2023/07/12 00:20:22;;;;;;;8.27;7.57;;;;;;;-144.30;43.21;83639.53;5069278;28;20192;-53
2023/07/12 00:22:50;;;;;;;8.80;8.15;;;;;;;-144.30;43.03;83607.75;5069507;28;20648;-50
2023/07/12 00:25:18;;;;;;;8.85;8.02;;;;;;;-144.30;43.21;83611.72;5069692;28;20615;-49
2023/07/12 00:27:45;;;;;;;8.95;8.13;;;;;;;-144.30;43.23;83581.91;5069291;28;20203;-50
2023/07/12 00:30:17;;;;;;;10.57;9.25;;;;;;;-144.30;43.33;83615.69;5069446;28;20198;-49
2023/07/12 00:32:44;;;;;;;8.98;8.25;;;;;;;-144.30;43.42;83627.63;5069154;28;20195;-52
2023/07/12 00:35:16;;;;;;;18.65;9.20;;;;;;;-144.30;43.63;83603.78;5069221;28;20231;-51
2023/07/12 00:37:44;;;;;;;19.67;9.18;;;;;;;-144.30;43.29;83466.69;5069569;28;20200;-52
2023/07/12 00:40:22;;;;;;;10.07;8.65;;;;;;;-144.30;43.36;83651.47;5069468;28;20202;-50
2023/07/12 00:42:55;;;;;;;9.48;8.77;;;;;;;-144.30;43.18;83603.78;5069171;28;20220;-50
2023/07/12 00:45:32;;;;;;;10.57;9.55;;;;;;;-144.30;43.38;83635.56;5068782;28;20951;-48
2023/07/12 00:47:59;;;;;;;10.00;8.27;;;;;;;-144.30;43.45;83609.75;5069321;28;20576;-50
2023/07/12 00:50:26;;;;;;;8.48;7.80;;;;;;;-144.30;43.36;83631.59;5068832;28;20200;-50
2023/07/12 00:52:54;;;;;;;10.00;8.68;;;;;;;-144.30;43.29;83651.47;5068259;28;20188;-50
2023/07/12 00:55:56;;;;;;;8.90;8.10;;;;;;;-144.30;43.46;83619.66;5068765;28;20203;-49
2023/07/12 00:58:23;;;;;;;9.05;8.05;;;;;;;-144.30;43.17;83573.97;5069243;28;20196;-51
2023/07/12 01:00:52;;;;;;;8.85;8.13;;;;;;;-144.30;43.18;83667.34;5069130;28;20562;-48
2023/07/12 01:03:21;;;;;;;8.88;8.18;;;;;;;-144.30;43.30;83687.22;5068538;28;20224;-49
2023/07/12 01:05:48;;;;;;;9.10;8.35;;;;;;;-144.30;43.53;83711.06;5068965;28;20567;-52
2023/07/12 01:08:16;;;;;;;8.77;7.85;;;;;;;-144.30;43.56;83689.22;5068877;28;20192;-50
2023/07/12 01:10:43;;;;;;;8.48;7.78;;;;;;;-144.30;43.38;83643.50;5069289;28;20583;-51
2023/07/12 01:13:10;;;;;;;9.10;8.40;;;;;;;-144.30;43.78;83663.38;5069063;28;20280;-48
2023/07/12 01:15:37;;;;;;;8.80;8.10;;;;;;;-144.30;44.06;83693.19;5068728;28;20210;-52
2023/07/12 01:18:08;;;;;;;9.10;8.35;;;;;;;-144.30;44.29;83701.13;5069000;28;20206;-48
2023/07/12 01:20:36;;;;;;;9.18;8.38;;;;;;;-144.30;44.48;83713.06;5069123;28;20207;-50
2023/07/12 01:23:05;;;;;;;8.75;8.05;;;;;;;-144.30;44.30;83728.97;5068696;28;20220;-49
2023/07/12 01:25:35;;;;;;;9.48;8.77;;;;;;;-144.30;44.38;83693.19;5068642;28;20619;-50
2023/07/12 01:28:03;;;;;;;9.40;8.60;;;;;;;-144.30;44.25;83740.88;5068717;28;20199;-51
2023/07/12 01:30:30;;;;;;;9.68;8.82;;;;;;;-144.30;44.12;84072.72;5069070;28;20196;-49
2023/07/12 01:32:57;;;;;;;8.70;8.10;;;;;;;-144.30;44.45;83748.81;5068654;28;20192;-50
2023/07/12 01:35:23;;;;;;;10.98;8.73;;;;;;;-144.30;44.27;83754.78;5068081;28;20231;-52
2023/07/12 01:37:50;;;;;;;9.40;8.70;;;;;;;-144.30;44.38;83772.66;5068871;28;20585;-48
2023/07/12 01:40:19;;;;;;;9.43;8.52;;;;;;;-144.30;44.45;83778.63;5068713;28;20200;-51
2023/07/12 01:42:46;;;;;;;9.48;8.63;;;;;;;-144.30;44.30;83754.78;5068951;28;20191;-52
2023/07/12 01:45:13;;;;;;;8.55;7.93;;;;;;;-144.30;44.57;83780.63;5068468;28;20212;-53
2023/07/12 01:47:40;;;;;;;9.50;8.77;;;;;;;-144.30;44.48;83754.78;5068418;28;20224;-49
2023/07/12 01:50:07;;;;;;;9.40;8.65;;;;;;;-144.30;44.56;83804.47;5068519;28;20208;-53
2023/07/12 01:52:34;;;;;;;10.13;8.40;;;;;;;-144.30;44.80;83796.50;5068274;28;20207;-49
2023/07/12 01:55:02;;;;;;;9.18;8.43;;;;;;;-144.30;44.81;83778.63;5068611;28;20271;-48
2023/07/12 01:57:30;;;;;;;11.05;9.27;;;;;;;-144.30;44.78;83794.53;5068373;28;20196;-50
2023/07/12 01:59:57;;;;;;;9.00;8.30;;;;;;;-144.30;45.04;83625.63;5068429;28;20192;-49
2023/07/12 02:02:24;;;;;;;9.93;8.55;;;;;;;-144.30;45.23;83798.50;5068117;28;20200;-49
2023/07/12 02:04:51;;;;;;;9.00;8.30;;;;;;;-144.30;45.39;83792.53;5070411;28;20226;-49
2023/07/12 02:07:17;;;;;;;9.35;8.75;;;;;;;-144.30;45.75;83808.44;5072071;28;20196;-51
2023/07/12 02:10:09;;;;;;;11.63;9.18;;;;;;;-144.30;45.44;83782.59;5072191;28;20564;-48
2023/07/12 02:12:37;;;;;;;10.82;8.68;;;;;;;-144.30;45.61;83786.56;5071877;28;20218;-48
2023/07/12 02:15:05;;;;;;;9.70;8.80;;;;;;;-144.30;45.64;83802.47;5071932;28;20196;-49
2023/07/12 02:17:32;;;;;;;9.68;8.95;;;;;;;-144.30;45.86;83798.50;5071605;28;20204;-51
2023/07/12 02:19:59;;;;;;;9.63;8.73;;;;;;;-144.30;46.01;83874.00;5071813;28;20210;-49
2023/07/12 02:22:29;;;;;;;12.68;9.18;;;;;;;-144.30;46.19;83826.31;5071649;28;20291;-50
2023/07/12 02:24:56;;;;;;;10.65;9.68;;;;;;;-144.30;46.19;83876.00;5071681;28;20220;-50
2023/07/12 02:27:24;;;;;;;9.82;9.02;;;;;;;-144.30;46.16;83822.34;5071415;28;20238;-49
2023/07/12 02:29:52;;;;;;;10.55;9.55;;;;;;;-144.30;46.38;83850.16;5072288;28;20620;-48
2023/07/12 02:32:20;;;;;;;10.50;9.48;;;;;;;-144.30;46.68;83933.63;5071539;28;20204;-49
2023/07/12 02:34:47;;;;;;;12.00;9.93;;;;;;;-144.30;46.84;83909.78;5071520;28;20279;-51
2023/07/12 02:37:14;;;;;;;10.48;9.68;;;;;;;-144.30;46.65;83864.06;5071998;28;20196;-51
2023/07/12 02:39:41;;;;;;;9.32;8.43;;;;;;;-144.30;46.72;83955.47;5071915;28;20552;-53
2023/07/12 02:42:08;;;;;;;10.23;9.52;;;;;;;-144.30;46.61;83887.91;5071337;28;20200;-52
2023/07/12 02:44:35;;;;;;;13.23;10.23;;;;;;;-144.30;46.50;83927.66;5071166;28;20223;-52
2023/07/12 02:47:04;;;;;;;10.50;9.48;;;;;;;-144.30;46.39;83885.94;5071672;28;20710;-52
2023/07/12 02:49:31;;;;;;;16.23;10.55;;;;;;;-144.30;46.38;83953.50;5071584;28;20200;-52
2023/07/12 02:51:58;;;;;;;10.63;9.63;;;;;;;-144.30;46.30;83959.44;5071463;28;20204;-52
2023/07/12 02:54:24;;;;;;;11.07;10.20;;;;;;;-144.30;46.41;83955.47;5071008;28;20188;-50
2023/07/12 02:56:51;;;;;;;15.20;9.77;;;;;;;-144.30;46.22;83971.38;5071591;28;20204;-50
2023/07/12 02:59:18;;;;;;;11.52;9.32;;;;;;;-144.30;46.16;83943.56;5071209;28;20643;-50
2023/07/12 03:01:47;;;;;;;11.10;8.60;;;;;;;-144.30;46.09;84122.41;5070755;28;20203;-54
2023/07/12 03:04:16;;;;;;;9.77;9.07;;;;;;;-144.30;45.80;83937.59;5070772;28;20307;-52
2023/07/12 03:06:42;;;;;;;11.02;9.18;;;;;;;-144.30;45.86;83889.91;5070987;28;20200;-52
2023/07/12 03:09:10;;;;;;;10.52;9.25;;;;;;;-144.30;45.81;83949.50;5071003;28;20680;-50
2023/07/12 03:11:37;;;;;;;10.85;9.65;;;;;;;-144.30;45.80;83931.63;5071179;28;20681;-50
2023/07/12 03:14:04;;;;;;;10.50;9.45;;;;;;;-144.30;45.79;83915.75;5070784;28;20192;-49
2023/07/12 03:16:32;;;;;;;10.85;9.95;;;;;;;-144.30;45.78;83915.75;5069718;28;20200;-50
2023/07/12 03:19:00;;;;;;;10.52;9.60;;;;;;;-144.30;45.64;83738.88;5069476;28;20207;-49
2023/07/12 03:21:28;;;;;;;10.77;9.63;;;;;;;-144.30;45.59;83885.94;5070686;28;20585;-50
2023/07/12 03:23:55;;;;;;;12.63;10.23;;;;;;;-144.30;45.67;83907.78;5066713;28;20696;-49
2023/07/12 03:26:23;;;;;;;11.30;10.13;;;;;;;-144.30;45.95;83889.91;5069941;28;20521;-50
2023/07/12 03:28:50;;;;;;;10.20;9.27;;;;;;;-144.30;45.88;83923.69;5070741;28;20669;-48
2023/07/12 03:31:17;;;;;;;14.25;11.00;;;;;;;-144.30;45.80;83963.44;5070419;28;20222;-51
2023/07/12 03:33:46;;;;;;;10.90;10.00;;;;;;;-144.30;45.83;83909.78;5070414;28;20583;-49
2023/07/12 03:36:14;;;;;;;11.75;10.65;;;;;;;-144.30;45.63;83881.97;5069987;28;20231;-49
2023/07/12 03:38:43;;;;;;;11.38;9.98;;;;;;;-144.30;45.59;83852.16;5069712;28;20232;-53
2023/07/12 03:41:12;;;;;;;10.88;9.98;;;;;;;-144.30;45.29;83848.19;5070268;28;20287;-51
2023/07/12 03:43:39;;;;;;;11.93;9.90;;;;;;;-144.30;45.11;83850.16;5070059;28;20216;-53
2023/07/12 03:46:06;;;;;;;10.68;9.70;;;;;;;-144.30;44.90;83850.16;5069331;28;20196;-53
2023/07/12 03:48:33;;;;;;;11.68;9.25;;;;;;;-144.30;44.69;83818.38;5069321;28;20222;-53
2023/07/12 03:51:01;;;;;;;12.10;10.25;;;;;;;-144.30;44.43;83752.78;5069976;28;20578;-52
2023/07/12 03:53:28;;;;;;;13.02;9.57;;;;;;;-144.30;44.20;83760.75;5069559;28;20192;-52
2023/07/12 03:56:00;;;;;;;11.20;9.60;;;;;;;-144.30;43.85;83734.91;5070038;28;20249;-53
2023/07/12 03:58:30;;;;;;;12.50;9.70;;;;;;;-144.30;43.00;83647.50;5068788;28;20279;-50
2023/07/12 04:00:57;;;;;;;19.48;10.20;;;;;;;-144.30;41.85;83532.25;5069306;28;20283;-53
2023/07/12 04:03:23;;;;;;;12.60;9.65;;;;;;;-144.30;40.26;83367.34;5069586;28;20724;-53
2023/07/12 04:05:53;;;;;;;10.30;9.23;;;;;;;-144.30;39.54;83270.00;5066944;28;20672;-50
2023/07/12 04:08:20;;;;;;;14.05;9.48;;;;;;;-144.30;38.25;83174.63;5069155;28;20680;-49
2023/07/12 04:10:51;;;;;;;12.35;9.55;;;;;;;-144.30;37.55;83041.53;5068885;28;20726;-51
2023/07/12 04:13:20;;;;;;;13.80;8.88;;;;;;;-144.30;36.70;82936.25;5067815;28;20599;-50
2023/07/12 04:15:47;;;;;;;14.60;10.13;;;;;;;-144.30;36.00;82898.50;5068955;28;20664;-51
2023/07/12 04:18:14;;;;;;;10.23;9.32;;;;;;;-144.30;35.95;82862.75;5069644;28;20196;-50
2023/07/12 04:20:41;;;;;;;12.73;9.05;;;;;;;-144.30;35.36;82779.31;5069578;28;20299;-50
2023/07/12 04:23:07;;;;;;;10.07;9.18;;;;;;;-144.30;35.02;82697.88;5069649;28;20562;-50
2023/07/12 04:25:35;;;;;;;18.55;10.00;;;;;;;-144.30;34.30;82570.75;5069405;28;20598;-52
2023/07/12 04:28:06;;;;;;;9.65;8.65;;;;;;;-144.30;33.54;82554.84;5073201;28;20226;-52
2023/07/12 04:30:34;;;;;;;18.45;8.85;;;;;;;-144.30;33.84;82509.16;5073794;28;20283;-49
2023/07/12 04:33:01;;;;;;;11.80;9.77;;;;;;;-144.30;33.65;82495.25;5068741;28;20204;-52
2023/07/12 04:35:28;;;;;;;13.70;9.23;;;;;;;-144.30;33.17;82423.75;5064285;28;20719;-53
2023/07/12 04:37:55;;;;;;;13.18;9.80;;;;;;;-144.30;32.72;82326.44;5068312;28;20593;-52
2023/07/12 04:40:22;;;;;;;10.18;9.27;;;;;;;-144.30;32.17;82193.38;5068508;28;20208;-53
2023/07/12 04:42:49;;;;;;;10.15;9.15;;;;;;;-144.30;31.93;82135.75;5068786;28;20626;-52
2023/07/12 04:45:16;;;;;;;11.00;9.85;;;;;;;-144.30;31.53;82054.34;5068564;28;20211;-50
2023/07/12 04:47:45;;;;;;;12.52;9.25;;;;;;;-144.30;31.26;81957.03;5068898;28;20191;-52
2023/07/12 04:50:12;;;;;;;9.45;8.70;;;;;;;-144.30;31.20;81903.41;5068714;28;20200;-53
2023/07/12 04:52:39;;;;;;;18.92;9.32;;;;;;;-144.30;30.58;81744.53;5069000;28;20614;-49
2023/07/12 04:55:20;;;;;;;10.98;8.82;;;;;;;-144.30;30.26;81714.75;5069311;28;20266;-49
2023/07/12 04:57:47;;;;;;;13.77;9.30;;;;;;;-144.30;29.92;81641.28;5069166;28;20235;-50
2023/07/12 05:00:15;;;;;;;12.13;9.27;;;;;;;-144.30;29.50;81476.47;5067804;28;20677;-50
2023/07/12 05:02:43;;;;;;;16.10;9.45;;;;;;;-144.30;29.30;81323.56;5059711;28;20212;-51
2023/07/12 05:05:12;;;;;;;16.55;9.45;;;;;;;-144.30;29.16;81287.81;5059518;28;20219;-50
2023/07/12 05:07:39;;;;;;;12.05;8.75;;;;;;;-144.30;28.68;81212.38;5068777;28;20271;-52
2023/07/12 05:10:07;;;;;;;20.95;8.98;;;;;;;-144.30;28.02;80972.13;5068780;28;20607;-54
2023/07/12 05:12:35;;;;;;;14.98;9.82;;;;;;;-144.30;27.42;80751.75;5068982;28;20699;-50
2023/07/12 05:15:02;;;;;;;8.70;7.70;;;;;;;-144.30;27.24;80704.13;5069474;28;20191;-51
2023/07/12 05:17:29;;;;;;;12.13;9.40;;;;;;;-144.30;27.27;80751.75;5069010;28;20195;-53
2023/07/12 05:19:58;;;;;;;14.48;8.85;;;;;;;-144.30;27.67;80771.63;5068948;28;20655;-53
2023/07/12 05:22:26;;;;;;;15.63;8.82;;;;;;;-144.30;26.77;80565.16;5068703;28;20201;-53
2023/07/12 05:24:53;;;;;;;9.43;8.55;;;;;;;-144.30;26.70;80668.38;5068406;28;20227;-52
2023/07/12 05:27:20;;;;;;;10.60;8.18;;;;;;;-144.30;26.93;80606.84;5067545;28;20206;-50
2023/07/12 05:29:47;;;;;;;9.80;8.82;;;;;;;-144.30;26.63;80346.78;5067997;28;20260;-49
2023/07/12 05:32:14;;;;;;;10.55;8.57;;;;;;;-144.30;26.02;80217.75;5068141;28;20195;-53
2023/07/12 05:34:42;;;;;;;12.30;7.95;;;;;;;-144.30;25.97;80086.75;5067749;28;20191;-52
2023/07/12 05:37:12;;;;;;;10.60;9.02;;;;;;;-144.30;26.11;80136.38;5068884;28;20257;-52
2023/07/12 05:39:40;;;;;;;9.00;8.13;;;;;;;-144.30;25.82;79892.25;5070405;28;20643;-50
2023/07/12 05:42:08;;;;;;;12.45;9.52;;;;;;;-144.30;25.93;80156.22;5071605;28;20199;-52
2023/07/12 05:44:35;;;;;;;10.15;8.23;;;;;;;-144.30;25.73;80193.94;5072113;28;20225;-53
2023/07/12 05:47:01;;;;;;;12.73;9.10;;;;;;;-144.30;25.83;80247.53;5052769;28;20200;-50
2023/07/12 05:49:28;;;;;;;13.65;8.77;;;;;;;-144.30;25.88;80184.03;5052029;28;20192;-53
2023/07/12 05:51:55;;;;;;;9.20;8.32;;;;;;;-144.30;26.26;80241.59;5052679;28;20226;-52
2023/07/12 05:54:24;;;;;;;16.48;8.63;;;;;;;-144.30;26.20;80237.63;5061553;28;20203;-51
2023/07/12 05:56:51;;;;;;;11.00;8.27;;;;;;;-144.30;25.95;80231.66;5072423;28;20719;-52
2023/07/12 05:59:19;;;;;;;12.27;9.30;;;;;;;-144.30;26.48;80293.19;5071879;28;20286;-51
2023/07/12 06:01:46;;;;;;;9.30;8.07;;;;;;;-144.30;26.03;80116.53;5072484;28;20932;-50
2023/07/12 06:04:12;;;;;;;9.35;8.55;;;;;;;-144.30;25.48;79910.09;5071867;28;20199;-50
2023/07/12 06:06:40;;;;;;;10.93;9.00;;;;;;;-144.30;25.47;79771.19;5071694;28;20201;-53
2023/07/12 06:09:07;;;;;;;10.52;8.77;;;;;;;-144.30;25.11;79697.75;5071555;28;20195;-53
2023/07/12 06:11:36;;;;;;;11.23;8.02;;;;;;;-144.30;24.96;79717.59;5071801;28;20207;-53
2023/07/12 06:14:02;;;;;;;14.15;10.00;;;;;;;-144.30;25.10;79691.78;5072035;28;20199;-53
2023/07/12 06:16:30;;;;;;;9.27;8.38;;;;;;;-144.30;24.67;79457.59;5071534;28;20191;-51
2023/07/12 06:18:57;;;;;;;11.65;7.90;;;;;;;-144.30;24.54;79413.94;5071800;28;20199;-51
2023/07/12 06:21:24;;;;;;;16.70;8.93;;;;;;;-144.30;24.96;79757.28;5071478;28;20590;-50
2023/07/12 06:23:51;;;;;;;9.88;8.95;;;;;;;-144.30;25.44;79824.78;5071819;28;20195;-50
2023/07/12 06:26:18;;;;;;;12.43;8.10;;;;;;;-144.30;25.09;79755.31;5071913;28;20306;-53
2023/07/12 06:28:46;;;;;;;11.45;8.07;;;;;;;-144.30;24.74;79667.97;5071618;28;20196;-53
2023/07/12 06:31:13;;;;;;;20.45;8.48;;;;;;;-144.30;24.88;79501.28;5071585;28;20288;-53
2023/07/12 06:33:40;;;;;;;15.68;8.38;;;;;;;-144.30;25.15;79652.09;5071374;28;20206;-50
2023/07/12 06:36:07;;;;;;;12.93;8.35;;;;;;;-144.30;24.60;79608.44;5071815;28;20235;-53
2023/07/12 06:38:34;;;;;;;10.73;8.38;;;;;;;-144.30;24.62;79671.94;5071624;28;20222;-51
2023/07/12 06:41:01;;;;;;;8.77;7.88;;;;;;;-144.30;25.00;79759.28;5071515;28;20206;-50
2023/07/12 06:43:28;;;;;;;11.32;8.13;;;;;;;-144.30;25.12;79733.47;5070012;28;20199;-51
2023/07/12 06:45:56;;;;;;;20.45;8.88;;;;;;;-144.30;24.63;79755.31;5069849;28;20223;-49
2023/07/12 06:48:24;;;;;;;8.82;7.80;;;;;;;-144.30;25.07;79914.09;5051081;28;20295;-53
2023/07/12 06:50:51;;;;;;;9.85;8.70;;;;;;;-144.30;25.02;79904.16;5049443;28;20227;-51
2023/07/12 06:53:18;;;;;;;15.63;8.57;;;;;;;-144.30;25.41;79945.84;5048777;28;20200;-53
2023/07/12 06:55:46;;;;;;;15.75;8.75;;;;;;;-144.30;25.27;79931.94;5051031;28;20282;-49
2023/07/12 06:58:13;;;;;;;15.30;8.80;;;;;;;-144.30;25.22;79927.97;5051212;28;20698;-53
2023/07/12 07:00:41;;;;;;;13.80;7.70;;;;;;;-144.30;25.70;79961.72;5051029;28;20200;-52
2023/07/12 07:03:10;;;;;;;14.45;9.73;;;;;;;-144.30;25.72;80080.81;5051062;28;20204;-53
2023/07/12 07:05:38;;;;;;;12.77;8.80;;;;;;;-144.30;25.73;79945.84;5050693;28;20235;-53
2023/07/12 07:08:05;;;;;;;16.23;8.32;;;;;;;-144.30;25.33;79985.53;5051090;28;20283;-53
2023/07/12 07:10:32;;;;;;;8.38;7.28;;;;;;;-144.30;25.15;79997.44;5050497;28;20215;-49
2023/07/12 07:12:59;;;;;;;14.32;9.10;;;;;;;-144.30;25.25;79971.63;5050718;28;20222;-51
2023/07/12 07:15:26;;;;;;;11.60;7.97;;;;;;;-144.30;25.40;80082.78;5050791;28;20326;-50
2023/07/12 07:17:53;;;;;;;17.17;8.45;;;;;;;-144.30;25.37;80037.13;5050681;28;20208;-50
2023/07/12 07:20:22;;;;;;;15.90;9.20;;;;;;;-144.30;25.42;80104.63;5050546;28;20206;-50
2023/07/12 07:22:49;;;;;;;13.85;8.15;;;;;;;-144.30;25.44;79902.16;5050708;28;20287;-50
2023/07/12 07:25:16;;;;;;;18.63;12.65;;;;;;;-144.30;25.42;80039.13;5050611;28;20278;-50
2023/07/12 07:27:43;;;;;;;20.63;10.73;;;;;;;-144.30;25.12;79866.44;5050310;28;20203;-52
2023/07/12 07:30:11;;;;;;;22.38;10.00;;;;;;;-144.30;25.39;79949.81;5050707;28;20192;-52
2023/07/12 07:32:38;;;;;;;11.18;7.72;;;;;;;-144.30;25.25;79826.75;5050579;28;20426;-49
2023/07/12 07:35:06;;;;;;;19.80;9.23;;;;;;;-144.30;24.65;79739.44;5050391;28;20230;-50
2023/07/12 07:37:34;;;;;;;10.63;9.63;;;;;;;-144.30;24.85;79767.22;5050203;28;20204;-52
2023/07/12 07:40:01;;;;;;;10.77;8.05;;;;;;;-144.30;24.69;79648.13;5050445;28;20202;-52
2023/07/12 07:42:28;;;;;;;10.35;7.70;;;;;;;-144.30;24.35;79759.28;5050435;28;20204;-52
2023/07/12 07:44:55;;;;;;;8.82;7.38;;;;;;;-144.30;24.60;79689.81;5050342;28;20274;-52
2023/07/12 07:47:22;;;;;;;12.20;9.15;;;;;;;-144.30;24.48;79654.09;5050239;28;20693;-52
2023/07/12 07:49:49;;;;;;;17.23;10.95;;;;;;;-144.30;24.36;79741.41;5050359;28;20231;-56
2023/07/12 07:52:16;;;;;;;11.88;8.98;;;;;;;-144.30;24.40;79683.84;5050368;28;20196;-54
2023/07/12 07:54:45;;;;;;;12.02;9.82;;;;;;;-144.30;24.40;79556.84;5050811;28;20199;-52
2023/07/12 07:57:11;;;;;;;13.27;9.20;;;;;;;-144.30;24.55;79421.88;5051137;28;20204;-50
2023/07/12 07:59:38;;;;;;;8.23;7.40;;;;;;;-144.30;24.54;79537.00;5050374;28;20203;-48
2023/07/12 08:02:06;;;;;;;9.18;6.82;;;;;;;-144.30;24.07;79310.75;5049737;28;20619;-50
2023/07/12 08:04:33;;;;;;;7.50;6.78;;;;;;;-144.30;24.10;79243.28;5049793;28;20203;-50
2023/07/12 08:07:00;;;;;;;9.82;7.38;;;;;;;-144.30;24.07;79473.50;5049757;28;20222;-51
2023/07/12 08:09:27;;;;;;;15.13;7.65;;;;;;;-144.30;24.32;79662.03;5049620;28;20204;-50
2023/07/12 08:11:55;;;;;;;11.38;7.78;;;;;;;-144.30;24.45;79737.44;5049761;28;20200;-50
2023/07/12 08:14:22;;;;;;;11.98;9.02;;;;;;;-144.30;24.57;79499.28;5049735;28;20570;-50
2023/07/12 08:16:49;;;;;;;10.80;7.13;;;;;;;-144.30;24.23;79459.59;5049727;28;20661;-53
2023/07/12 08:19:16;;;;;;;7.25;6.55;;;;;;;-144.30;24.01;79370.28;5049791;28;20196;-52
2023/07/12 08:21:43;;;;;;;7.55;7.00;;;;;;;-144.30;24.06;79358.38;5049407;28;20238;-53
2023/07/12 08:24:10;;;;;;;7.65;7.05;;;;;;;-144.30;23.91;79243.28;5049632;28;20231;-53
2023/07/12 08:26:37;;;;;;;8.15;6.90;;;;;;;-144.30;23.85;78945.66;5049459;28;20255;-52
2023/07/12 08:29:06;;;;;;;15.85;7.15;;;;;;;-144.30;23.70;78675.81;5049600;28;20195;-49
2023/07/12 08:31:34;;;;;;;8.07;6.95;;;;;;;-144.30;23.32;78644.06;5049203;28;20207;-52
2023/07/12 08:34:01;;;;;;;6.90;6.30;;;;;;;-144.30;23.05;78525.00;5049514;28;20241;-52
2023/07/12 08:36:28;;;;;;;7.88;6.78;;;;;;;-144.30;23.37;78802.78;5048929;28;20223;-53
2023/07/12 08:38:54;;;;;;;7.70;7.00;;;;;;;-144.30;23.27;78802.78;5049566;28;20218;-52
2023/07/12 08:41:24;;;;;;;9.00;6.65;;;;;;;-144.30;23.70;79062.72;5049058;28;20203;-52
2023/07/12 08:43:53;;;;;;;10.15;6.75;;;;;;;-144.30;24.03;79279.00;5049358;28;20210;-49
2023/07/12 08:46:24;;;;;;;6.63;6.10;;;;;;;-144.30;23.93;79370.28;5048953;28;20219;-50
2023/07/12 08:48:54;;;;;;;7.40;6.65;;;;;;;-144.30;24.16;79463.56;5049104;28;20578;-50
2023/07/12 08:51:27;;;;;;;7.60;6.43;;;;;;;-144.30;24.23;79652.09;5048848;28;20203;-50
2023/07/12 08:53:55;;;;;;;8.50;7.07;;;;;;;-144.30;24.73;79683.84;5049235;28;20196;-52
2023/07/12 08:56:22;;;;;;;9.68;7.47;;;;;;;-144.30;24.92;79796.97;5048865;28;20196;-49
2023/07/12 08:58:51;;;;;;;11.90;7.78;;;;;;;-144.30;24.78;79814.84;5049264;28;20200;-52
2023/07/12 09:01:37;;;;;;;9.65;7.65;;;;;;;-144.30;24.69;79820.78;5049032;28;20668;-52
2023/07/12 09:04:24;;;;;;;10.27;8.00;;;;;;;-144.30;24.45;79886.28;5049002;28;20199;-52
2023/07/12 09:06:53;;;;;;;7.85;7.32;;;;;;;-144.30;24.81;79852.56;5048945;28;20230;-49
2023/07/12 09:09:20;;;;;;;7.35;6.85;;;;;;;-144.30;24.86;79868.44;5061635;28;20726;-49
2023/07/12 09:11:47;;;;;;;7.03;6.35;;;;;;;-144.30;24.77;80035.16;5068831;28;20203;-49
2023/07/12 09:14:17;;;;;;;7.95;6.97;;;;;;;-144.30;24.96;80013.31;5052839;28;20211;-52
2023/07/12 09:16:48;;;;;;;9.57;7.05;;;;;;;-144.30;25.17;79985.53;5048561;28;20196;-49
2023/07/12 09:19:17;;;;;;;9.65;7.30;;;;;;;-144.30;25.12;80035.16;5049011;28;20203;-51
2023/07/12 09:21:48;;;;;;;7.50;6.72;;;;;;;-144.30;25.65;80051.03;5048999;28;20196;-52
2023/07/12 09:24:21;;;;;;;7.47;6.85;;;;;;;-144.30;25.44;79981.56;5048899;28;20283;-52
2023/07/12 09:26:49;;;;;;;10.35;7.03;;;;;;;-144.30;25.48;79957.75;5048945;28;20235;-52
2023/07/12 09:29:20;;;;;;;9.25;7.90;;;;;;;-144.30;25.66;80213.78;5049085;28;20202;-52
2023/07/12 09:31:49;;;;;;;7.57;7.07;;;;;;;-144.30;25.64;80160.19;5048766;28;20196;-53
2023/07/12 09:34:21;;;;;;;11.18;7.60;;;;;;;-144.30;25.78;80132.41;5048830;28;20200;-53
2023/07/12 09:36:56;;;;;;;11.75;7.35;;;;;;;-144.30;25.80;80100.66;5048764;28;20240;-50
2023/07/12 09:39:23;;;;;;;8.80;6.53;;;;;;;-144.30;25.39;80086.75;5048744;28;20641;-53
2023/07/12 09:41:54;;;;;;;8.32;6.45;;;;;;;-144.30;25.31;80076.84;5048889;28;20214;-52
2023/07/12 09:44:22;;;;;;;9.30;7.40;;;;;;;-144.30;25.44;79961.72;5048712;28;20196;-52
2023/07/12 09:46:54;;;;;;;7.53;6.93;;;;;;;-144.30;25.29;79918.06;5048737;28;20231;-53
2023/07/12 09:49:24;;;;;;;11.35;7.38;;;;;;;-144.30;25.31;79920.03;5048691;28;20292;-50
2023/07/12 09:52:05;;;;;;;9.50;7.10;;;;;;;-144.30;25.32;80068.91;5049111;28;20220;-50
2023/07/12 09:54:44;;;;;;;9.00;7.28;;;;;;;-144.30;25.51;80086.75;5048513;28;20199;-50
2023/07/12 09:57:17;;;;;;;8.15;7.32;;;;;;;-144.30;25.18;80132.41;5048108;28;20657;-53
2023/07/12 09:59:57;;;;;;;14.98;12.70;;;;;;;-144.30;25.34;80174.09;5048162;28;20212;-49
2023/07/12 10:02:34;;;;;;;7.57;7.00;;;;;;;-144.30;25.73;80255.47;5048355;28;20203;-53
2023/07/12 10:05:05;;;;;;;7.63;6.85;;;;;;;-144.30;25.67;80255.47;5048512;28;20202;-53
2023/07/12 10:07:56;;;;;;;11.40;7.13;;;;;;;-144.30;25.97;80223.72;5048407;28;20228;-53
2023/07/12 10:10:30;;;;;;;9.80;6.85;;;;;;;-144.30;25.85;80283.28;5043510;28;20235;-51
2023/07/12 10:13:07;;;;;;;9.07;7.22;;;;;;;-144.30;26.46;80199.91;5048564;28;20287;-53
2023/07/12 10:15:38;;;;;;;11.88;6.47;;;;;;;-144.30;25.73;80279.28;5048229;28;20199;-52
2023/07/12 10:18:11;;;;;;;7.13;6.60;;;;;;;-144.30;25.63;80388.47;5047768;28;20207;-50
2023/07/12 10:20:39;;;;;;;10.30;6.63;;;;;;;-144.30;26.55;80438.09;5047791;28;20223;-50
2023/07/12 10:23:08;;;;;;;10.45;7.55;;;;;;;-144.30;26.14;80533.38;5057426;28;20227;-52
2023/07/12 10:25:38;;;;;;;8.18;7.20;;;;;;;-144.30;26.53;80628.69;5050572;28;20200;-52
2023/07/12 10:28:15;;;;;;;8.52;7.70;;;;;;;-144.30;27.11;80585.00;5051994;28;20238;-50
2023/07/12 10:30:45;;;;;;;12.05;7.57;;;;;;;-144.30;26.94;80710.06;5051672;28;20538;-52
2023/07/12 10:33:18;;;;;;;7.63;7.00;;;;;;;-144.30;27.04;80831.16;5051702;28;20204;-52
2023/07/12 10:35:48;;;;;;;7.90;7.10;;;;;;;-144.30;27.08;80872.88;5051476;28;20236;-50
2023/07/12 10:38:18;;;;;;;7.45;6.75;;;;;;;-144.30;26.87;80878.81;5056285;28;20564;-50
2023/07/12 10:40:54;;;;;;;7.88;7.10;;;;;;;-144.30;27.18;80874.84;5057384;28;20214;-50
2023/07/12 10:43:27;;;;;;;8.77;6.45;;;;;;;-144.30;27.03;80807.34;5051554;28;20282;-50
2023/07/12 10:45:59;;;;;;;7.55;6.30;;;;;;;-144.30;27.50;80993.97;5051551;28;20334;-52
2023/07/12 10:48:30;;;;;;;8.95;7.20;;;;;;;-144.30;27.89;81037.66;5051326;28;20192;-49
2023/07/12 10:51:12;;;;;;;6.85;6.35;;;;;;;-144.30;26.65;81057.50;5051439;28;20196;-53
2023/07/12 10:53:49;;;;;;;11.07;7.13;;;;;;;-144.30;26.81;81017.78;5051109;28;20200;-49
2023/07/12 10:56:18;;;;;;;7.68;6.88;;;;;;;-144.30;27.52;81079.34;5051274;28;20511;-50
2023/07/12 10:58:49;;;;;;;7.85;7.20;;;;;;;-144.30;27.54;81023.75;5051123;28;20202;-49
2023/07/12 11:01:54;;;;;;;8.43;7.45;;;;;;;-144.30;27.45;81150.81;5051250;28;20192;-53
2023/07/12 11:04:37;;;;;;;8.52;6.85;;;;;;;-144.30;27.01;81123.03;5040371;28;20196;-53
2023/07/12 11:07:25;;;;;;;8.60;6.78;;;;;;;-144.30;26.36;81113.09;5051022;28;20256;-50
2023/07/12 11:10:17;;;;;;;7.53;6.93;;;;;;;-144.30;26.75;81061.47;5050792;28;20201;-53
2023/07/12 11:12:53;;;;;;;11.82;7.72;;;;;;;-144.30;26.44;81067.44;5050513;28;20196;-53
2023/07/12 11:15:23;;;;;;;9.75;7.57;;;;;;;-144.30;26.64;81021.75;5050454;28;20196;-49
2023/07/12 11:17:55;;;;;;;7.68;7.05;;;;;;;-144.30;26.75;81003.91;5050686;28;20193;-51
2023/07/12 11:20:26;;;;;;;8.45;7.22;;;;;;;-144.30;26.85;80986.03;5050613;28;20672;-50